Main page
METAR-TAF:

METAR-TAF

Airports :

RAF Shawbury

Shawbury, England

latitude: 52-48N, longitude: 002-40W, elevation: 76 m

Current weather observation

The report was made 1 hour and 18 minutes ago, at 20:50 UTC
Wind 4 kt from the West/Southwest
Temperature 0°C
Humidity 100%
Pressure 997 hPa
Visibility 10 km or more
snow grains

METAR: EGOS 222050Z AUTO 24004KT 9999 SG FEW033/// BKN050/// M00/M00 Q0997

Time: 22:08 (22:08 UTC)

Forecast

The report was made 7 hours and 44 minutes ago, at 14:24 UTC
Forecast valid from 22 at 14 UTC to 22 at 18 UTC
Wind 6 kt from the Southwest
Visibility 10 km or more
Few clouds at a height of 2000 ft
Scattered clouds at a height of 3000 ft
Probability 30% :
Temporary
from 22 at 14 UTC to 22 at 18 UTC
Wind 15 kt from the West with gusts up to 25 kt
Visibility: 3000 m
Broken clouds at a height of 1000 ft, Cumulonimbus.
rain showers, snow

TAF: EGOS 221424Z 2214/2218 23006KT 9999 FEW020 SCT030 PROB30 TEMPO 2214/2218 26015G25KT 3000 SHRASN BKN010CB

Weather observations and forecasts of more than 4000 airports (METAR and TAF reports).

The available stations are represented by yellow and red dots on the map.

Hover mouse over dot to see the name of the station.

Then click to see weather observations and forecasts.

To change the map : click on the green buttons with a black cross to zoom in, on the green button with a dash to zoom out, or on the green arrows for adjacent maps.


METAR-TAF: